Mount Hamilton, California
Current Conditions -  °F | °C
As of 3:50 PM on Sunday 28 Dec 2014 (Local Time) from KRHV Reporting Station
Clear Clear  
Wind Chill: 57°   Ceiling: Unl
Heat Index: 57°   Visibility: 10mi
Dew Point: 37°   Wind: 12mph
Humidity: 48%   Direction: 320°NW
Pressure: 30.25"   Gusts: NA
Location:  37.37°N, 121.71°W
Report Text: KRHV 282350Z 32010KT 10SM SKC 14/03 A3025
Loading
Personal Weather Stations






























Interactive Weather Map New forecast layout! Learn more

10-Day Weather Forecast

Advertisements
Track Severe Weather on mobile